createdAt,value
2022-09-23T00:10:34.000Z,7.17
2022-09-23T00:10:34.000Z,7.18
2022-09-23T00:11:34.000Z,7.14
2022-09-23T00:12:34.000Z,7.13
2022-09-23T00:13:34.000Z,7.14
2022-09-23T00:14:34.000Z,7.13
2022-09-23T00:15:34.000Z,7.13
2022-09-23T00:16:34.000Z,7.15
2022-09-23T00:17:34.000Z,7.11
2022-09-23T00:18:34.000Z,7.15
2022-09-23T00:19:34.000Z,7.11
2022-09-23T00:20:34.000Z,7.10
2022-09-23T00:21:34.000Z,7.14
2022-09-23T00:22:34.000Z,7.13
2022-09-23T00:23:34.000Z,7.11
2022-09-23T00:24:34.000Z,7.11
2022-09-23T00:25:34.000Z,7.13
2022-09-23T00:26:34.000Z,7.06
2022-09-23T00:27:34.000Z,7.07
2022-09-23T00:28:34.000Z,7.05
2022-09-23T00:29:34.000Z,7.02
2022-09-23T00:30:34.000Z,7.05
2022-09-23T00:31:34.000Z,7.05
2022-09-23T00:32:34.000Z,7.00
2022-09-23T00:33:34.000Z,7.03
2022-09-23T00:34:34.000Z,6.97
2022-09-23T00:35:34.000Z,6.99
2022-09-23T00:36:34.000Z,6.96
2022-09-23T00:37:34.000Z,6.96
2022-09-23T00:38:34.000Z,6.93
2022-09-23T00:39:34.000Z,6.92
2022-09-23T00:40:34.000Z,6.88
2022-09-23T00:41:34.000Z,6.87
2022-09-23T00:42:34.000Z,6.89
2022-09-23T00:43:34.000Z,6.87
2022-09-23T00:44:34.000Z,6.84
2022-09-23T00:45:34.000Z,6.82
2022-09-23T00:46:34.000Z,6.81
2022-09-23T00:47:34.000Z,6.82
2022-09-23T00:48:34.000Z,6.79
2022-09-23T00:49:34.000Z,6.77
2022-09-23T00:50:34.000Z,6.78
2022-09-23T00:51:34.000Z,6.77
2022-09-23T00:52:34.000Z,6.75
2022-09-23T00:53:34.000Z,6.72
2022-09-23T00:54:34.000Z,6.70
2022-09-23T00:55:34.000Z,6.72
2022-09-23T00:56:34.000Z,6.70
2022-09-23T00:57:34.000Z,6.70
2022-09-23T00:58:34.000Z,6.70
2022-09-23T00:59:34.000Z,6.70
2022-09-23T01:00:34.000Z,6.69
2022-09-23T01:01:34.000Z,6.64
2022-09-23T01:02:34.000Z,6.66
2022-09-23T01:03:34.000Z,6.67
2022-09-23T01:16:09.000Z,6.66
2022-09-23T01:16:09.000Z,6.66
2022-09-23T01:17:09.000Z,6.64
2022-09-23T01:18:09.000Z,6.63
2022-09-23T01:19:09.000Z,6.67
2022-09-23T01:20:09.000Z,6.64
2022-09-23T01:21:09.000Z,6.62
2022-09-23T01:22:09.000Z,6.64
2022-09-23T01:23:09.000Z,6.60
2022-09-23T01:24:09.000Z,6.60
2022-09-23T01:25:09.000Z,6.57
2022-09-23T01:26:09.000Z,6.57
2022-09-23T01:27:09.000Z,6.52
2022-09-23T01:28:08.000Z,6.49
2022-09-23T01:29:08.000Z,6.49
2022-09-23T01:30:08.000Z,6.49
2022-09-23T01:31:08.000Z,6.48
2022-09-23T01:32:08.000Z,6.48
2022-09-23T01:33:08.000Z,6.45
2022-09-23T01:34:08.000Z,6.46
2022-09-23T01:35:08.000Z,6.45
2022-09-23T01:36:08.000Z,6.44
2022-09-23T01:37:08.000Z,6.46
2022-09-23T01:38:08.000Z,6.42
2022-09-23T01:39:08.000Z,6.45
2022-09-23T01:40:08.000Z,6.44
2022-09-23T01:41:08.000Z,6.41
2022-09-23T01:42:08.000Z,6.42
2022-09-23T01:43:08.000Z,6.44
2022-09-23T01:44:08.000Z,6.36
2022-09-23T01:45:08.000Z,6.39
2022-09-23T01:46:08.000Z,6.42
2022-09-23T01:47:08.000Z,6.38
2022-09-23T01:48:08.000Z,6.35
2022-09-23T01:49:08.000Z,6.36
2022-09-23T01:50:08.000Z,6.33
2022-09-23T01:51:08.000Z,6.28
2022-09-23T01:52:08.000Z,6.30
2022-09-23T01:53:08.000Z,6.28
2022-09-23T01:54:08.000Z,6.30
2022-09-23T01:55:08.000Z,6.30
2022-09-23T01:56:08.000Z,6.30
2022-09-23T01:57:08.000Z,6.22
2022-09-23T01:58:08.000Z,6.20
2022-09-23T01:59:08.000Z,6.22
2022-09-23T02:00:08.000Z,6.22
2022-09-23T02:01:08.000Z,6.20
2022-09-23T02:02:08.000Z,6.19
2022-09-23T02:03:08.000Z,6.17
2022-09-23T02:04:08.000Z,6.19
2022-09-23T02:05:08.000Z,6.20
2022-09-23T02:06:08.000Z,6.12
2022-09-23T02:07:08.000Z,6.12
2022-09-23T02:08:08.000Z,6.11
2022-09-23T02:09:08.000Z,6.14
2022-09-23T02:10:08.000Z,6.11
2022-09-23T02:11:08.000Z,6.11
2022-09-23T02:12:08.000Z,6.12
2022-09-23T02:13:08.000Z,6.09
2022-09-23T02:14:08.000Z,6.12
2022-09-23T02:15:08.000Z,6.09
2022-09-23T02:16:08.000Z,6.11
2022-09-23T02:17:08.000Z,6.09
2022-09-23T02:18:08.000Z,6.09
2022-09-23T02:19:08.000Z,6.11
2022-09-23T02:20:08.000Z,6.11
2022-09-23T02:21:08.000Z,6.07
2022-09-23T02:22:08.000Z,6.08
2022-09-23T02:23:08.000Z,6.07
2022-09-23T02:24:08.000Z,6.11
2022-09-23T02:25:08.000Z,6.05
2022-09-23T02:26:08.000Z,6.05
2022-09-23T02:27:08.000Z,6.09
2022-09-23T02:28:08.000Z,6.07
2022-09-23T02:29:08.000Z,6.04
2022-09-23T02:30:08.000Z,6.05
2022-09-23T02:31:08.000Z,6.05
2022-09-23T02:32:08.000Z,6.05
2022-09-23T02:33:08.000Z,6.01
2022-09-23T02:34:08.000Z,6.02
2022-09-23T02:35:08.000Z,6.04
2022-09-23T02:36:08.000Z,6.04
2022-09-23T02:37:08.000Z,6.02
2022-09-23T02:38:08.000Z,6.02
2022-09-23T02:39:08.000Z,6.01
2022-09-23T02:40:08.000Z,5.99
2022-09-23T02:41:08.000Z,5.98
2022-09-23T02:42:08.000Z,5.99
2022-09-23T02:43:08.000Z,5.97
2022-09-23T02:44:08.000Z,5.94
2022-09-23T02:45:08.000Z,5.91
2022-09-23T02:46:08.000Z,5.90
2022-09-23T02:47:08.000Z,5.89
2022-09-23T02:48:08.000Z,5.89
2022-09-23T02:49:08.000Z,5.87
2022-09-23T02:50:08.000Z,5.89
2022-09-23T02:51:08.000Z,5.87
2022-09-23T02:52:08.000Z,5.87
2022-09-23T02:53:08.000Z,5.84
2022-09-23T02:54:08.000Z,5.89
2022-09-23T02:55:08.000Z,5.87
2022-09-23T02:56:08.000Z,5.90
2022-09-23T02:57:08.000Z,5.86
2022-09-23T02:58:08.000Z,5.89
2022-09-23T02:59:08.000Z,5.87
2022-09-23T03:00:08.000Z,5.87
2022-09-23T03:01:07.000Z,5.86
2022-09-23T03:02:07.000Z,5.89
2022-09-23T03:03:07.000Z,5.84
2022-09-23T03:04:07.000Z,5.86
2022-09-23T03:05:07.000Z,5.86
2022-09-23T03:06:07.000Z,5.84
2022-09-23T03:07:07.000Z,5.84
2022-09-23T03:08:07.000Z,5.83
2022-09-23T03:09:07.000Z,5.82
2022-09-23T03:10:07.000Z,5.82
2022-09-23T03:11:07.000Z,5.84
2022-09-23T03:12:07.000Z,5.84
2022-09-23T03:13:07.000Z,5.79
2022-09-23T03:14:07.000Z,5.82
2022-09-23T03:15:07.000Z,5.89
2022-09-23T03:16:07.000Z,5.82
2022-09-23T03:17:07.000Z,5.80
2022-09-23T03:18:07.000Z,5.80
2022-09-23T03:19:07.000Z,5.79
2022-09-23T03:20:07.000Z,5.75
2022-09-23T03:21:07.000Z,5.79
2022-09-23T03:22:07.000Z,5.71
2022-09-23T03:23:07.000Z,5.73
2022-09-23T03:24:07.000Z,5.73
2022-09-23T03:25:07.000Z,5.69
2022-09-23T03:26:07.000Z,5.68
2022-09-23T03:27:07.000Z,5.69
2022-09-23T03:28:07.000Z,5.69
2022-09-23T03:29:07.000Z,5.69
2022-09-23T03:30:07.000Z,5.68
2022-09-23T03:31:07.000Z,5.65
2022-09-23T03:32:07.000Z,5.66
2022-09-23T03:33:07.000Z,5.64
2022-09-23T03:34:07.000Z,5.64
2022-09-23T03:35:07.000Z,5.66
2022-09-23T03:36:07.000Z,5.62
2022-09-23T03:37:07.000Z,5.64
2022-09-23T03:38:07.000Z,5.57
2022-09-23T03:39:07.000Z,5.62
2022-09-23T03:40:07.000Z,5.59
2022-09-23T03:41:07.000Z,5.57
2022-09-23T03:42:07.000Z,5.56
2022-09-23T03:43:07.000Z,5.53
2022-09-23T03:44:07.000Z,5.53
2022-09-23T03:45:07.000Z,5.51
2022-09-23T03:46:07.000Z,5.47
2022-09-23T03:47:07.000Z,5.48
2022-09-23T03:48:07.000Z,5.50
2022-09-23T03:49:07.000Z,5.47
2022-09-23T03:50:07.000Z,5.44
2022-09-23T03:51:07.000Z,5.43
2022-09-23T03:52:07.000Z,5.46
2022-09-23T03:53:07.000Z,5.46
2022-09-23T03:54:07.000Z,5.41
2022-09-23T03:55:07.000Z,5.39
2022-09-23T03:56:07.000Z,5.43
2022-09-23T03:57:07.000Z,5.43
2022-09-23T03:58:07.000Z,5.41
2022-09-23T03:59:07.000Z,5.44
2022-09-23T04:00:07.000Z,5.41
2022-09-23T04:01:07.000Z,5.43
2022-09-23T04:02:07.000Z,5.43
2022-09-23T04:03:07.000Z,5.41
2022-09-23T04:04:07.000Z,5.39
2022-09-23T04:05:07.000Z,5.46
2022-09-23T04:06:07.000Z,5.39
2022-09-23T04:07:07.000Z,5.41
2022-09-23T04:08:07.000Z,5.38
2022-09-23T04:09:07.000Z,5.39
2022-09-23T04:10:07.000Z,5.41
2022-09-23T04:11:07.000Z,5.39
2022-09-23T04:12:07.000Z,5.35
2022-09-23T04:13:07.000Z,5.36
2022-09-23T04:14:07.000Z,5.38
2022-09-23T04:15:07.000Z,5.38
2022-09-23T04:16:07.000Z,5.36
2022-09-23T04:17:07.000Z,5.36
2022-09-23T04:18:07.000Z,5.33
2022-09-23T04:19:07.000Z,5.32
2022-09-23T04:20:07.000Z,5.35
2022-09-23T04:21:07.000Z,5.32
2022-09-23T04:22:07.000Z,5.32
2022-09-23T04:23:07.000Z,5.32
2022-09-23T04:24:07.000Z,5.30
2022-09-23T04:25:07.000Z,5.28
2022-09-23T04:26:07.000Z,5.32
2022-09-23T04:27:07.000Z,5.32
2022-09-23T04:28:07.000Z,5.29
2022-09-23T04:29:07.000Z,5.26
2022-09-23T04:30:07.000Z,5.28
2022-09-23T04:31:07.000Z,5.29
2022-09-23T04:32:07.000Z,5.28
2022-09-23T04:33:07.000Z,5.26
2022-09-23T04:34:07.000Z,5.28
2022-09-23T04:35:07.000Z,5.25
2022-09-23T04:36:06.000Z,5.26
2022-09-23T04:37:06.000Z,5.25
2022-09-23T04:38:06.000Z,5.30
2022-09-23T04:39:06.000Z,5.25
2022-09-23T04:40:06.000Z,5.28
2022-09-23T04:41:06.000Z,5.26
2022-09-23T04:42:06.000Z,5.23
2022-09-23T04:43:06.000Z,5.26
2022-09-23T04:44:06.000Z,5.26
2022-09-23T04:45:06.000Z,5.26
2022-09-23T04:46:06.000Z,5.28
2022-09-23T04:47:06.000Z,5.26
2022-09-23T04:48:06.000Z,5.26
2022-09-23T04:49:06.000Z,5.25
2022-09-23T04:50:06.000Z,5.23
2022-09-23T04:51:06.000Z,5.23
2022-09-23T04:52:06.000Z,5.20
2022-09-23T04:53:06.000Z,5.25
2022-09-23T04:54:06.000Z,5.18
2022-09-23T04:55:06.000Z,5.17
2022-09-23T04:56:06.000Z,5.23
2022-09-23T04:57:06.000Z,5.18
2022-09-23T04:58:06.000Z,5.20
2022-09-23T04:59:06.000Z,5.17
2022-09-23T05:00:06.000Z,5.15
2022-09-23T05:01:06.000Z,5.15
2022-09-23T05:02:06.000Z,5.17
2022-09-23T05:03:06.000Z,5.18
2022-09-23T05:04:06.000Z,5.15
2022-09-23T05:05:06.000Z,5.18
2022-09-23T05:06:06.000Z,5.18
2022-09-23T05:07:06.000Z,5.20
2022-09-23T05:08:06.000Z,5.21
2022-09-23T05:09:06.000Z,5.23
2022-09-23T05:10:06.000Z,5.25
2022-09-23T05:11:06.000Z,5.28
2022-09-23T05:12:06.000Z,5.26
2022-09-23T05:13:06.000Z,5.30
2022-09-23T05:14:06.000Z,5.33
2022-09-23T05:15:06.000Z,5.39
2022-09-23T05:16:06.000Z,5.47
2022-09-23T05:17:06.000Z,5.47
2022-09-23T05:18:06.000Z,5.53
2022-09-23T05:19:06.000Z,5.57
2022-09-23T05:20:06.000Z,5.66
2022-09-23T05:21:06.000Z,5.71
2022-09-23T05:22:06.000Z,5.79
2022-09-23T05:23:06.000Z,5.83
2022-09-23T05:24:06.000Z,5.87
2022-09-23T05:25:06.000Z,5.98
2022-09-23T05:26:06.000Z,6.08
2022-09-23T05:27:06.000Z,6.12
2022-09-23T05:28:06.000Z,6.20
2022-09-23T05:29:06.000Z,6.30
2022-09-23T05:30:06.000Z,6.36
2022-09-23T05:31:06.000Z,6.48
2022-09-23T05:32:06.000Z,6.56
2022-09-23T05:33:06.000Z,6.63
2022-09-23T05:34:06.000Z,6.69
2022-09-23T05:35:06.000Z,6.77
2022-09-23T05:36:06.000Z,6.87
2022-09-23T05:37:06.000Z,6.97
2022-09-23T05:38:06.000Z,7.05
2022-09-23T05:39:06.000Z,7.13
2022-09-23T05:40:06.000Z,7.20
2022-09-23T05:41:06.000Z,7.32
2022-09-23T05:42:06.000Z,7.35
2022-09-23T05:43:06.000Z,7.42
2022-09-23T05:44:06.000Z,7.53
2022-09-23T05:45:06.000Z,7.66
2022-09-23T05:46:06.000Z,7.73
2022-09-23T05:47:06.000Z,7.79
2022-09-23T05:48:06.000Z,7.91
2022-09-23T05:49:06.000Z,8.00
2022-09-23T05:50:06.000Z,8.08
2022-09-23T05:51:06.000Z,8.13
2022-09-23T05:52:06.000Z,8.23
2022-09-23T05:53:06.000Z,8.28
2022-09-23T05:54:06.000Z,8.34
2022-09-23T05:55:06.000Z,8.38
2022-09-23T05:56:06.000Z,8.49
2022-09-23T05:57:06.000Z,8.60
2022-09-23T05:58:06.000Z,8.69
2022-09-23T05:59:06.000Z,8.74
2022-09-23T06:00:06.000Z,8.82
2022-09-23T06:01:06.000Z,8.89
2022-09-23T06:02:06.000Z,9.00
2022-09-23T06:03:06.000Z,9.04
2022-09-23T06:04:06.000Z,9.10
2022-09-23T06:05:06.000Z,9.18
2022-09-23T06:06:06.000Z,9.23
2022-09-23T06:07:06.000Z,9.36
2022-09-23T06:08:06.000Z,9.41
2022-09-23T06:09:06.000Z,9.48
2022-09-23T06:10:06.000Z,9.59
2022-09-23T06:11:05.000Z,9.68
2022-09-23T06:12:05.000Z,9.72
2022-09-23T06:13:05.000Z,9.86
2022-09-23T06:14:05.000Z,9.86
2022-09-23T06:15:05.000Z,9.97
2022-09-23T06:16:05.000Z,10.04
2022-09-23T06:17:05.000Z,10.15
2022-09-23T06:18:05.000Z,10.19
2022-09-23T06:19:05.000Z,10.25
2022-09-23T06:20:05.000Z,10.33
2022-09-23T06:21:05.000Z,10.40
2022-09-23T06:22:05.000Z,10.54
2022-09-23T06:23:05.000Z,10.57
2022-09-23T06:24:05.000Z,10.64
2022-09-23T06:25:05.000Z,10.71
2022-09-23T06:26:05.000Z,10.86
2022-09-23T06:27:05.000Z,10.86
2022-09-23T06:28:05.000Z,10.93
2022-09-23T06:29:05.000Z,11.02
2022-09-23T06:30:05.000Z,11.11
2022-09-23T06:30:05.000Z,11.11
2022-09-23T06:31:05.000Z,11.18
2022-09-23T06:31:05.000Z,11.18
2022-09-23T06:32:05.000Z,11.29
2022-09-23T06:32:05.000Z,11.29
2022-09-23T06:33:05.000Z,11.30
2022-09-23T06:33:05.000Z,11.30
2022-09-23T06:34:05.000Z,11.43
2022-09-23T06:34:05.000Z,11.43
2022-09-23T06:35:05.000Z,11.47
2022-09-23T06:36:05.000Z,11.51
2022-09-23T06:37:05.000Z,11.57
2022-09-23T06:38:05.000Z,11.65
2022-09-23T06:39:05.000Z,11.72
2022-09-23T06:40:05.000Z,11.69
2022-09-23T06:41:05.000Z,11.77
2022-09-23T06:42:05.000Z,11.83
2022-09-23T06:43:05.000Z,11.88
2022-09-23T06:44:05.000Z,12.03
2022-09-23T06:45:05.000Z,12.15
2022-09-23T06:46:05.000Z,12.21
2022-09-23T06:47:05.000Z,12.27
2022-09-23T06:48:05.000Z,12.39
2022-09-23T06:49:05.000Z,12.42
2022-09-23T06:50:05.000Z,12.60
2022-09-23T06:51:05.000Z,12.64
2022-09-23T06:52:05.000Z,12.76
2022-09-23T06:53:05.000Z,12.85
2022-09-23T06:54:05.000Z,12.87
2022-09-23T06:55:05.000Z,12.91
2022-09-23T06:56:05.000Z,13.01
2022-09-23T06:57:05.000Z,13.08
2022-09-23T06:58:05.000Z,13.12
2022-09-23T06:59:05.000Z,13.18
2022-09-23T07:00:05.000Z,13.20
2022-09-23T07:01:05.000Z,13.31
2022-09-23T07:02:05.000Z,13.37
2022-09-23T07:03:05.000Z,13.46
2022-09-23T07:04:05.000Z,13.56
2022-09-23T07:05:05.000Z,13.68
2022-09-23T07:06:05.000Z,13.83
2022-09-23T07:07:05.000Z,13.95
2022-09-23T07:08:05.000Z,14.05
2022-09-23T07:09:05.000Z,14.08
2022-09-23T07:10:05.000Z,14.10
2022-09-23T07:11:05.000Z,14.17
2022-09-23T07:12:05.000Z,14.22
2022-09-23T07:13:05.000Z,14.28
2022-09-23T07:14:05.000Z,14.44
2022-09-23T07:15:05.000Z,14.50
2022-09-23T07:16:05.000Z,14.63
2022-09-23T07:17:05.000Z,14.72
2022-09-23T07:18:05.000Z,14.89
2022-09-23T07:19:05.000Z,14.94
2022-09-23T07:20:05.000Z,15.06
2022-09-23T07:21:05.000Z,15.10
2022-09-23T07:22:05.000Z,15.14
2022-09-23T07:23:05.000Z,15.18
2022-09-23T07:24:05.000Z,15.31
2022-09-23T07:25:05.000Z,15.27
2022-09-23T07:25:05.000Z,15.27
2022-09-23T07:26:05.000Z,15.36
2022-09-23T07:26:05.000Z,15.36
2022-09-23T07:27:05.000Z,15.49
2022-09-23T07:27:05.000Z,15.49
2022-09-23T07:28:05.000Z,15.57
2022-09-23T07:28:05.000Z,15.57
2022-09-23T07:29:05.000Z,15.70
2022-09-23T07:29:05.000Z,15.70
2022-09-23T07:30:05.000Z,15.82
2022-09-23T07:31:05.000Z,15.90
2022-09-23T07:32:05.000Z,16.00
2022-09-23T07:33:05.000Z,16.05
2022-09-23T07:34:05.000Z,16.00
2022-09-23T07:35:05.000Z,16.01
2022-09-23T07:36:05.000Z,16.12
2022-09-23T07:37:05.000Z,16.09
2022-09-23T07:38:05.000Z,16.10
2022-09-23T07:39:05.000Z,16.05
2022-09-23T07:40:05.000Z,16.09
2022-09-23T07:41:05.000Z,16.16
2022-09-23T07:42:05.000Z,16.15
2022-09-23T07:43:04.000Z,16.23
2022-09-23T07:44:04.000Z,16.26
2022-09-23T07:45:04.000Z,16.33
2022-09-23T07:46:04.000Z,16.41
2022-09-23T07:47:04.000Z,16.49
2022-09-23T07:48:04.000Z,16.61
2022-09-23T07:49:04.000Z,16.61
2022-09-23T07:50:04.000Z,16.75
2022-09-23T07:51:04.000Z,16.84
2022-09-23T07:52:04.000Z,16.90
2022-09-23T07:53:04.000Z,16.87
2022-09-23T07:54:04.000Z,16.96
2022-09-23T07:55:04.000Z,17.01
2022-09-23T07:56:04.000Z,17.12
2022-09-23T07:57:04.000Z,17.23
2022-09-23T07:58:04.000Z,17.33
2022-09-23T07:59:04.000Z,17.46
2022-09-23T08:00:04.000Z,17.63
2022-09-23T08:01:04.000Z,17.74
2022-09-23T08:02:04.000Z,17.80
2022-09-23T08:03:04.000Z,17.90
2022-09-23T08:04:04.000Z,18.03
2022-09-23T08:05:04.000Z,18.19
2022-09-23T08:06:04.000Z,18.31
2022-09-23T08:07:04.000Z,18.44
2022-09-23T08:08:04.000Z,18.58
2022-09-23T08:09:04.000Z,18.77
2022-09-23T08:10:04.000Z,18.96
2022-09-23T08:11:04.000Z,19.14
2022-09-23T08:12:04.000Z,19.21
2022-09-23T08:13:04.000Z,19.21
2022-09-23T08:14:04.000Z,19.37
2022-09-23T08:15:04.000Z,19.48
2022-09-23T08:16:04.000Z,19.47
2022-09-23T08:17:04.000Z,19.54
2022-09-23T08:18:04.000Z,19.66
2022-09-23T08:19:04.000Z,19.70
2022-09-23T08:20:04.000Z,19.71
2022-09-23T08:21:04.000Z,19.55
2022-09-23T08:22:04.000Z,19.52
2022-09-23T08:23:04.000Z,19.41
2022-09-23T08:24:04.000Z,19.36
2022-09-23T08:25:04.000Z,19.29
2022-09-23T08:26:04.000Z,19.22
2022-09-23T08:27:04.000Z,18.98
2022-09-23T08:28:04.000Z,18.98
2022-09-23T08:29:04.000Z,18.92
2022-09-23T08:30:04.000Z,18.96
2022-09-23T08:31:04.000Z,18.84
2022-09-23T08:32:04.000Z,18.75
2022-09-23T08:33:04.000Z,18.75
2022-09-23T08:34:04.000Z,18.71
2022-09-23T08:35:04.000Z,18.56
2022-09-23T08:36:04.000Z,18.60
2022-09-23T08:37:04.000Z,18.62
2022-09-23T08:38:04.000Z,18.62
2022-09-23T08:39:04.000Z,18.68
2022-09-23T08:40:04.000Z,18.74
2022-09-23T08:41:04.000Z,18.73
2022-09-23T08:42:04.000Z,18.52
2022-09-23T08:43:04.000Z,18.50
2022-09-23T08:44:04.000Z,18.49
2022-09-23T08:45:04.000Z,18.59
2022-09-23T08:46:04.000Z,18.65
2022-09-23T08:47:04.000Z,18.65
2022-09-23T08:48:04.000Z,18.74
2022-09-23T08:49:04.000Z,18.78
2022-09-23T08:50:04.000Z,18.71
2022-09-23T08:51:04.000Z,18.84
2022-09-23T08:52:04.000Z,18.92
2022-09-23T08:53:04.000Z,18.98
2022-09-23T08:54:04.000Z,19.04
2022-09-23T08:55:04.000Z,19.11
2022-09-23T08:56:04.000Z,19.16
2022-09-23T08:57:04.000Z,19.22
2022-09-23T08:58:04.000Z,19.37
2022-09-23T08:59:04.000Z,19.36
2022-09-23T09:00:04.000Z,19.47
2022-09-23T09:01:04.000Z,19.63
2022-09-23T09:02:04.000Z,19.73
2022-09-23T09:03:04.000Z,19.88
2022-09-23T09:04:04.000Z,20.03
2022-09-23T09:05:04.000Z,20.02
2022-09-23T09:06:04.000Z,20.10
2022-09-23T09:07:04.000Z,20.26
2022-09-23T09:08:04.000Z,20.40
2022-09-23T09:09:04.000Z,20.62
2022-09-23T09:10:04.000Z,20.65
2022-09-23T09:11:03.000Z,20.67
2022-09-23T09:12:03.000Z,20.65
2022-09-23T09:13:03.000Z,20.74
2022-09-23T09:14:03.000Z,20.92
2022-09-23T09:15:03.000Z,21.02
2022-09-23T09:16:03.000Z,21.17
2022-09-23T09:17:03.000Z,21.29
2022-09-23T09:18:03.000Z,21.43
2022-09-23T09:19:03.000Z,21.51
2022-09-23T09:20:03.000Z,21.46
2022-09-23T09:21:03.000Z,21.57
2022-09-23T09:22:03.000Z,21.70
2022-09-23T09:23:03.000Z,21.76
2022-09-23T09:24:03.000Z,21.75
2022-09-23T09:25:03.000Z,21.89
2022-09-23T09:26:03.000Z,22.06
2022-09-23T09:27:03.000Z,22.17
2022-09-23T09:28:03.000Z,22.33
2022-09-23T09:29:03.000Z,22.35
2022-09-23T09:30:03.000Z,22.32
2022-09-23T09:31:03.000Z,22.30
2022-09-23T09:32:03.000Z,22.28
2022-09-23T09:33:03.000Z,22.17
2022-09-23T09:34:03.000Z,22.23
2022-09-23T09:35:03.000Z,22.35
2022-09-23T09:36:03.000Z,22.36
2022-09-23T09:37:03.000Z,22.47
2022-09-23T09:38:03.000Z,22.47
2022-09-23T09:39:03.000Z,22.44
2022-09-23T09:40:03.000Z,22.38
2022-09-23T09:41:03.000Z,22.25
2022-09-23T09:42:03.000Z,22.33
2022-09-23T09:43:03.000Z,22.43
2022-09-23T09:44:03.000Z,22.54
2022-09-23T09:45:03.000Z,22.62
2022-09-23T09:46:03.000Z,22.72
2022-09-23T09:47:03.000Z,22.73
2022-09-23T09:48:03.000Z,22.72
2022-09-23T09:49:03.000Z,22.80
2022-09-23T09:50:03.000Z,22.76
2022-09-23T09:51:03.000Z,22.75
2022-09-23T09:52:03.000Z,22.84
2022-09-23T09:53:03.000Z,22.90
2022-09-23T09:54:03.000Z,22.94
2022-09-23T09:55:03.000Z,22.93
2022-09-23T09:56:03.000Z,22.87
2022-09-23T09:57:03.000Z,22.78
2022-09-23T09:58:03.000Z,22.72
2022-09-23T09:59:03.000Z,22.84
2022-09-23T10:00:03.000Z,22.98
2022-09-23T10:01:03.000Z,22.98
2022-09-23T10:02:03.000Z,23.09
2022-09-23T10:03:03.000Z,23.24
2022-09-23T10:04:03.000Z,23.36
2022-09-23T10:05:03.000Z,23.50
2022-09-23T10:05:03.000Z,23.50
2022-09-23T10:06:03.000Z,23.46
2022-09-23T10:06:03.000Z,23.46
2022-09-23T10:07:03.000Z,23.28
2022-09-23T10:07:03.000Z,23.28
2022-09-23T10:08:03.000Z,23.40
2022-09-23T10:08:03.000Z,23.40
2022-09-23T10:09:03.000Z,23.47
2022-09-23T10:09:03.000Z,23.47
2022-09-23T10:10:03.000Z,23.47
2022-09-23T10:11:03.000Z,23.61
2022-09-23T10:12:03.000Z,23.69
2022-09-23T10:13:03.000Z,23.65
2022-09-23T10:14:03.000Z,23.63
2022-09-23T10:15:03.000Z,23.73
2022-09-23T10:16:03.000Z,23.81
2022-09-23T10:17:03.000Z,23.83
2022-09-23T10:18:03.000Z,23.84
2022-09-23T10:19:03.000Z,23.88
2022-09-23T10:20:03.000Z,23.99
2022-09-23T10:21:03.000Z,24.11
2022-09-23T10:22:03.000Z,24.13
2022-09-23T10:23:03.000Z,24.20
2022-09-23T10:24:03.000Z,24.30
2022-09-23T10:25:03.000Z,24.26
2022-09-23T10:26:03.000Z,24.24
2022-09-23T10:27:03.000Z,24.23
2022-09-23T10:28:03.000Z,24.26
2022-09-23T10:29:03.000Z,24.14
2022-09-23T10:30:03.000Z,23.93
2022-09-23T10:31:03.000Z,23.92
2022-09-23T10:32:03.000Z,23.91
2022-09-23T10:33:03.000Z,23.88
2022-09-23T10:34:03.000Z,23.98
2022-09-23T10:35:03.000Z,23.99
2022-09-23T10:36:03.000Z,23.78
2022-09-23T10:37:03.000Z,23.68
2022-09-23T10:38:03.000Z,23.71
2022-09-23T10:39:03.000Z,23.59
2022-09-23T10:40:03.000Z,23.73
2022-09-23T10:41:03.000Z,23.80
2022-09-23T10:42:03.000Z,23.88
2022-09-23T10:43:03.000Z,23.93
2022-09-23T10:44:03.000Z,23.93
2022-09-23T10:45:02.000Z,24.05
2022-09-23T10:46:02.000Z,24.02
2022-09-23T10:47:02.000Z,24.08
2022-09-23T10:48:02.000Z,24.20
2022-09-23T10:49:02.000Z,24.20
2022-09-23T10:50:02.000Z,24.20
2022-09-23T10:51:02.000Z,24.13
2022-09-23T10:52:02.000Z,24.18
2022-09-23T10:53:02.000Z,24.17
2022-09-23T10:54:02.000Z,24.16
2022-09-23T10:55:02.000Z,24.11
2022-09-23T10:56:02.000Z,24.18
2022-09-23T10:57:02.000Z,24.16
2022-09-23T10:58:02.000Z,24.17
2022-09-23T10:59:02.000Z,24.14
2022-09-23T11:00:02.000Z,24.21
2022-09-23T11:01:02.000Z,24.28
2022-09-23T11:02:02.000Z,24.26
2022-09-23T11:03:02.000Z,24.33
2022-09-23T11:04:02.000Z,24.35
2022-09-23T11:05:02.000Z,24.38
2022-09-23T11:05:02.000Z,24.38
2022-09-23T11:06:02.000Z,24.35
2022-09-23T11:06:02.000Z,24.35
2022-09-23T11:07:02.000Z,24.42
2022-09-23T11:07:02.000Z,24.42
2022-09-23T11:08:02.000Z,24.57
2022-09-23T11:08:02.000Z,24.57
2022-09-23T11:09:02.000Z,24.51
2022-09-23T11:09:02.000Z,24.51
2022-09-23T11:10:02.000Z,24.61
2022-09-23T11:11:02.000Z,24.60
2022-09-23T11:12:02.000Z,24.50
2022-09-23T11:13:02.000Z,24.53
2022-09-23T11:14:02.000Z,24.42
2022-09-23T11:15:02.000Z,24.39
2022-09-23T11:16:02.000Z,24.39
2022-09-23T11:17:02.000Z,24.54
2022-09-23T11:18:02.000Z,24.68
2022-09-23T11:19:02.000Z,24.69
2022-09-23T11:20:02.000Z,24.88
2022-09-23T11:21:02.000Z,25.08
2022-09-23T11:22:02.000Z,25.28
2022-09-23T11:23:02.000Z,25.44
2022-09-23T11:24:02.000Z,25.62
2022-09-23T11:25:02.000Z,25.77
2022-09-23T11:26:02.000Z,26.00
2022-09-23T11:27:02.000Z,26.26
2022-09-23T11:28:02.000Z,26.53
2022-09-23T11:29:02.000Z,26.71
2022-09-23T11:30:02.000Z,26.68
2022-09-23T11:31:02.000Z,26.90
2022-09-23T11:32:02.000Z,27.12
2022-09-23T11:33:02.000Z,27.05
2022-09-23T11:34:02.000Z,26.88
2022-09-23T11:35:02.000Z,26.53
2022-09-23T11:36:02.000Z,26.09
2022-09-23T11:37:02.000Z,25.83
2022-09-23T11:38:02.000Z,25.54
2022-09-23T11:39:02.000Z,25.25
2022-09-23T11:40:02.000Z,24.86
2022-09-23T11:41:02.000Z,24.53
2022-09-23T11:42:02.000Z,24.16
2022-09-23T11:43:02.000Z,23.81
2022-09-23T11:44:02.000Z,23.51
2022-09-23T11:45:02.000Z,23.09
2022-09-23T11:46:02.000Z,22.83
2022-09-23T11:47:02.000Z,22.70
2022-09-23T11:48:02.000Z,22.57
2022-09-23T11:49:02.000Z,22.45
2022-09-23T11:50:02.000Z,22.36
2022-09-23T11:50:02.000Z,22.36
2022-09-23T11:51:02.000Z,22.44
2022-09-23T11:51:02.000Z,22.44
2022-09-23T11:52:02.000Z,22.62
2022-09-23T11:52:02.000Z,22.62
2022-09-23T11:53:02.000Z,23.02
2022-09-23T11:53:02.000Z,23.02
2022-09-23T11:54:02.000Z,23.32
2022-09-23T11:54:02.000Z,23.32
2022-09-23T11:55:02.000Z,23.83
2022-09-23T11:56:02.000Z,24.28
2022-09-23T11:57:02.000Z,24.43
2022-09-23T11:58:02.000Z,24.58
2022-09-23T11:59:02.000Z,25.06
2022-09-23T12:00:02.000Z,25.33
2022-09-23T12:01:02.000Z,25.38
2022-09-23T12:02:02.000Z,25.38
2022-09-23T12:03:02.000Z,25.22
2022-09-23T12:04:02.000Z,24.99
2022-09-23T12:05:02.000Z,24.91
2022-09-23T12:06:02.000Z,24.84
2022-09-23T12:07:02.000Z,24.58
2022-09-23T12:08:02.000Z,24.35
2022-09-23T12:09:02.000Z,24.26
2022-09-23T12:10:02.000Z,24.05
2022-09-23T12:11:02.000Z,24.23
2022-09-23T12:12:02.000Z,24.40
2022-09-23T12:13:02.000Z,24.45
2022-09-23T12:14:02.000Z,24.61
2022-09-23T12:15:02.000Z,24.66
2022-09-23T12:16:02.000Z,24.66
2022-09-23T12:17:02.000Z,24.54
2022-09-23T12:18:02.000Z,24.36
2022-09-23T12:19:02.000Z,23.98
2022-09-23T12:20:01.000Z,23.63
2022-09-23T12:21:01.000Z,23.37
2022-09-23T12:22:01.000Z,23.27
2022-09-23T12:23:01.000Z,23.02
2022-09-23T12:24:01.000Z,22.84
2022-09-23T12:25:01.000Z,22.62
2022-09-23T12:26:01.000Z,22.36
2022-09-23T12:27:01.000Z,22.20
2022-09-23T12:28:01.000Z,22.08
2022-09-23T12:29:01.000Z,22.06
2022-09-23T12:30:01.000Z,21.99
2022-09-23T12:31:01.000Z,21.98
2022-09-23T12:32:01.000Z,21.83
2022-09-23T12:33:01.000Z,21.73
2022-09-23T12:34:01.000Z,21.69
2022-09-23T12:35:01.000Z,21.48
2022-09-23T12:36:01.000Z,21.39
2022-09-23T12:37:01.000Z,21.29
2022-09-23T12:38:01.000Z,21.24
2022-09-23T12:39:01.000Z,21.21
2022-09-23T12:40:01.000Z,21.17
2022-09-23T12:41:01.000Z,21.15
2022-09-23T12:42:01.000Z,21.25
2022-09-23T12:43:01.000Z,21.25
2022-09-23T12:44:01.000Z,21.32
2022-09-23T12:45:01.000Z,21.42
2022-09-23T12:45:01.000Z,21.42
2022-09-23T12:46:01.000Z,21.32
2022-09-23T12:46:01.000Z,21.32
2022-09-23T12:47:01.000Z,21.33
2022-09-23T12:47:01.000Z,21.33
2022-09-23T12:48:01.000Z,21.30
2022-09-23T12:48:01.000Z,21.30
2022-09-23T12:49:01.000Z,21.29
2022-09-23T12:49:01.000Z,21.29
2022-09-23T12:50:01.000Z,21.35
2022-09-23T12:51:01.000Z,21.45
2022-09-23T12:52:01.000Z,21.54
2022-09-23T12:53:01.000Z,21.64
2022-09-23T12:54:01.000Z,21.69